Terminal Aerodrome Forecast
Issued by NWS Sioux Falls, SD

Home | Current Version | Previous Version | Graphics & Text | Print | Product List | Glossary On
Versions: 1 2 3 4 5 6 7 8 9 10 11 12 13 14
533
FTUS43 KFSD 100534
TAFFSD
TAF
KFSD 100534Z 1006/1106 VRB04KT P6SM -SN OVC045
     FM101200 08006KT 6SM -SN OVC030
     FM101400 09008KT 2SM -SN OVC015
     FM101700 11013KT 3/4SM -SN OVC010
     FM110000 11014KT 1SM -SN OVC008=

USA.gov is the U.S. government's official web portal to all federal, state and local government web resources and services.